sensor_id;sensor_type;location;lat;lon;timestamp;P1;durP1;ratioP1;P2;durP2;ratioP2
71648;SDS011;59492;45.638;11.714;2023-03-14T00:02:17;10.80;;;7.90;;
71648;SDS011;59492;45.638;11.714;2023-03-14T00:04:42;9.50;;;7.10;;
71648;SDS011;59492;45.638;11.714;2023-03-14T00:07:12;10.20;;;7.90;;
71648;SDS011;59492;45.638;11.714;2023-03-14T00:09:41;9.50;;;7.60;;
71648;SDS011;59492;45.638;11.714;2023-03-14T00:12:08;11.60;;;8.50;;
71648;SDS011;59492;45.638;11.714;2023-03-14T00:14:36;9.40;;;7.50;;
71648;SDS011;59492;45.638;11.714;2023-03-14T00:17:02;13.90;;;8.10;;
71648;SDS011;59492;45.638;11.714;2023-03-14T00:19:27;10.40;;;8.00;;
71648;SDS011;59492;45.638;11.714;2023-03-14T00:21:54;9.90;;;7.70;;
71648;SDS011;59492;45.638;11.714;2023-03-14T00:24:20;11.60;;;7.20;;
71648;SDS011;59492;45.638;11.714;2023-03-14T00:26:46;10.50;;;7.70;;
71648;SDS011;59492;45.638;11.714;2023-03-14T00:29:13;11.30;;;7.80;;
71648;SDS011;59492;45.638;11.714;2023-03-14T00:31:43;11.10;;;7.50;;
71648;SDS011;59492;45.638;11.714;2023-03-14T00:34:10;11.70;;;8.20;;
71648;SDS011;59492;45.638;11.714;2023-03-14T00:36:35;11.40;;;8.00;;
71648;SDS011;59492;45.638;11.714;2023-03-14T00:39:02;11.20;;;8.80;;
71648;SDS011;59492;45.638;11.714;2023-03-14T00:41:28;10.20;;;7.90;;
71648;SDS011;59492;45.638;11.714;2023-03-14T00:43:55;11.10;;;8.30;;
71648;SDS011;59492;45.638;11.714;2023-03-14T00:46:20;9.70;;;7.80;;
71648;SDS011;59492;45.638;11.714;2023-03-14T00:48:48;9.20;;;7.80;;
71648;SDS011;59492;45.638;11.714;2023-03-14T00:51:13;11.00;;;7.50;;
71648;SDS011;59492;45.638;11.714;2023-03-14T00:53:41;11.00;;;7.60;;
71648;SDS011;59492;45.638;11.714;2023-03-14T00:56:08;9.80;;;7.50;;
71648;SDS011;59492;45.638;11.714;2023-03-14T00:58:35;11.00;;;7.90;;
71648;SDS011;59492;45.638;11.714;2023-03-14T01:01:12;10.90;;;7.50;;
71648;SDS011;59492;45.638;11.714;2023-03-14T01:03:38;11.80;;;8.20;;
71648;SDS011;59492;45.638;11.714;2023-03-14T01:06:09;9.00;;;7.80;;
71648;SDS011;59492;45.638;11.714;2023-03-14T01:08:55;10.90;;;7.80;;
71648;SDS011;59492;45.638;11.714;2023-03-14T01:11:26;8.60;;;7.20;;
71648;SDS011;59492;45.638;11.714;2023-03-14T01:13:54;10.10;;;7.10;;
71648;SDS011;59492;45.638;11.714;2023-03-14T01:16:21;9.80;;;7.20;;
71648;SDS011;59492;45.638;11.714;2023-03-14T01:18:48;10.90;;;7.60;;
71648;SDS011;59492;45.638;11.714;2023-03-14T01:21:18;12.90;;;7.90;;
71648;SDS011;59492;45.638;11.714;2023-03-14T01:24:04;11.00;;;7.50;;
71648;SDS011;59492;45.638;11.714;2023-03-14T01:26:31;13.90;;;7.70;;
71648;SDS011;59492;45.638;11.714;2023-03-14T01:28:58;10.60;;;7.20;;
71648;SDS011;59492;45.638;11.714;2023-03-14T01:31:24;9.40;;;7.00;;
71648;SDS011;59492;45.638;11.714;2023-03-14T01:33:51;9.80;;;7.30;;
71648;SDS011;59492;45.638;11.714;2023-03-14T01:36:17;10.50;;;7.80;;
71648;SDS011;59492;45.638;11.714;2023-03-14T01:38:44;9.50;;;7.30;;
71648;SDS011;59492;45.638;11.714;2023-03-14T01:41:12;11.00;;;7.70;;
71648;SDS011;59492;45.638;11.714;2023-03-14T01:43:42;11.70;;;8.00;;
71648;SDS011;59492;45.638;11.714;2023-03-14T01:48:38;9.80;;;7.70;;
71648;SDS011;59492;45.638;11.714;2023-03-14T01:54:42;9.10;;;6.90;;
71648;SDS011;59492;45.638;11.714;2023-03-14T01:57:35;9.00;;;7.30;;
71648;SDS011;59492;45.638;11.714;2023-03-14T02:00:14;10.20;;;7.60;;
71648;SDS011;59492;45.638;11.714;2023-03-14T02:03:17;9.50;;;7.30;;
71648;SDS011;59492;45.638;11.714;2023-03-14T02:05:46;11.50;;;8.00;;
71648;SDS011;59492;45.638;11.714;2023-03-14T02:08:13;10.60;;;7.30;;
71648;SDS011;59492;45.638;11.714;2023-03-14T02:11:00;8.90;;;7.10;;
71648;SDS011;59492;45.638;11.714;2023-03-14T02:13:27;9.20;;;7.50;;
71648;SDS011;59492;45.638;11.714;2023-03-14T02:16:14;9.30;;;6.70;;
71648;SDS011;59492;45.638;11.714;2023-03-14T02:18:40;11.10;;;7.40;;
71648;SDS011;59492;45.638;11.714;2023-03-14T02:26:26;8.80;;;6.80;;
71648;SDS011;59492;45.638;11.714;2023-03-14T02:28:57;9.10;;;7.10;;
71648;SDS011;59492;45.638;11.714;2023-03-14T02:31:26;8.50;;;7.00;;
71648;SDS011;59492;45.638;11.714;2023-03-14T02:33:52;7.80;;;6.50;;
71648;SDS011;59492;45.638;11.714;2023-03-14T02:36:20;10.50;;;7.30;;
71648;SDS011;59492;45.638;11.714;2023-03-14T02:38:50;9.50;;;7.50;;
71648;SDS011;59492;45.638;11.714;2023-03-14T02:41:28;9.00;;;7.10;;
71648;SDS011;59492;45.638;11.714;2023-03-14T02:43:54;8.10;;;6.60;;
71648;SDS011;59492;45.638;11.714;2023-03-14T02:46:21;9.00;;;7.40;;
71648;SDS011;59492;45.638;11.714;2023-03-14T02:49:09;8.60;;;6.50;;
71648;SDS011;59492;45.638;11.714;2023-03-14T02:51:35;10.60;;;7.20;;
71648;SDS011;59492;45.638;11.714;2023-03-14T02:54:00;9.70;;;6.70;;
71648;SDS011;59492;45.638;11.714;2023-03-14T02:56:27;8.70;;;6.70;;
71648;SDS011;59492;45.638;11.714;2023-03-14T02:58:54;9.20;;;7.10;;
71648;SDS011;59492;45.638;11.714;2023-03-14T03:01:20;9.80;;;7.70;;
71648;SDS011;59492;45.638;11.714;2023-03-14T03:03:45;8.20;;;6.60;;
71648;SDS011;59492;45.638;11.714;2023-03-14T03:06:12;8.60;;;6.40;;
71648;SDS011;59492;45.638;11.714;2023-03-14T03:08:37;8.60;;;6.40;;
71648;SDS011;59492;45.638;11.714;2023-03-14T03:11:03;8.20;;;6.10;;
71648;SDS011;59492;45.638;11.714;2023-03-14T03:13:29;9.50;;;6.70;;
71648;SDS011;59492;45.638;11.714;2023-03-14T03:15:56;9.00;;;7.10;;
71648;SDS011;59492;45.638;11.714;2023-03-14T03:18:22;8.10;;;6.20;;
71648;SDS011;59492;45.638;11.714;2023-03-14T03:20:47;9.50;;;7.00;;
71648;SDS011;59492;45.638;11.714;2023-03-14T03:23:13;8.60;;;6.70;;
71648;SDS011;59492;45.638;11.714;2023-03-14T03:25:38;8.30;;;6.20;;
71648;SDS011;59492;45.638;11.714;2023-03-14T03:28:04;8.70;;;6.50;;
71648;SDS011;59492;45.638;11.714;2023-03-14T03:30:33;10.40;;;7.10;;
71648;SDS011;59492;45.638;11.714;2023-03-14T03:33:02;8.40;;;6.50;;
71648;SDS011;59492;45.638;11.714;2023-03-14T03:35:28;8.60;;;6.30;;
71648;SDS011;59492;45.638;11.714;2023-03-14T03:37:53;7.50;;;6.30;;
71648;SDS011;59492;45.638;11.714;2023-03-14T03:40:19;9.40;;;6.70;;
71648;SDS011;59492;45.638;11.714;2023-03-14T03:42:45;9.50;;;7.10;;
71648;SDS011;59492;45.638;11.714;2023-03-14T03:45:11;10.80;;;6.30;;
71648;SDS011;59492;45.638;11.714;2023-03-14T03:47:36;7.90;;;6.00;;
71648;SDS011;59492;45.638;11.714;2023-03-14T03:50:02;7.80;;;6.30;;
71648;SDS011;59492;45.638;11.714;2023-03-14T03:52:28;7.50;;;6.10;;
71648;SDS011;59492;45.638;11.714;2023-03-14T03:54:53;8.00;;;6.20;;
71648;SDS011;59492;45.638;11.714;2023-03-14T03:57:19;8.10;;;6.20;;
71648;SDS011;59492;45.638;11.714;2023-03-14T03:59:45;8.20;;;5.90;;
71648;SDS011;59492;45.638;11.714;2023-03-14T04:02:10;8.50;;;6.60;;
71648;SDS011;59492;45.638;11.714;2023-03-14T04:04:37;7.30;;;6.00;;
71648;SDS011;59492;45.638;11.714;2023-03-14T04:07:10;7.60;;;6.00;;
71648;SDS011;59492;45.638;11.714;2023-03-14T04:09:39;7.70;;;6.00;;
71648;SDS011;59492;45.638;11.714;2023-03-14T04:12:06;7.50;;;5.90;;
71648;SDS011;59492;45.638;11.714;2023-03-14T04:15:09;8.40;;;6.30;;
71648;SDS011;59492;45.638;11.714;2023-03-14T04:17:56;9.20;;;6.00;;
71648;SDS011;59492;45.638;11.714;2023-03-14T04:20:26;8.40;;;5.70;;
71648;SDS011;59492;45.638;11.714;2023-03-14T04:23:02;7.70;;;5.70;;
71648;SDS011;59492;45.638;11.714;2023-03-14T04:25:30;7.10;;;5.90;;
71648;SDS011;59492;45.638;11.714;2023-03-14T04:27:58;6.70;;;5.70;;
71648;SDS011;59492;45.638;11.714;2023-03-14T04:30:24;7.40;;;5.70;;
71648;SDS011;59492;45.638;11.714;2023-03-14T04:32:51;6.60;;;5.60;;
71648;SDS011;59492;45.638;11.714;2023-03-14T04:35:37;7.70;;;5.80;;
71648;SDS011;59492;45.638;11.714;2023-03-14T04:38:29;6.80;;;5.40;;
71648;SDS011;59492;45.638;11.714;2023-03-14T04:40:56;9.50;;;5.80;;
71648;SDS011;59492;45.638;11.714;2023-03-14T04:43:23;7.30;;;6.10;;
71648;SDS011;59492;45.638;11.714;2023-03-14T04:45:51;7.60;;;6.00;;
71648;SDS011;59492;45.638;11.714;2023-03-14T04:48:22;6.90;;;5.60;;
71648;SDS011;59492;45.638;11.714;2023-03-14T04:50:50;8.10;;;5.60;;
71648;SDS011;59492;45.638;11.714;2023-03-14T04:53:16;7.50;;;5.30;;
71648;SDS011;59492;45.638;11.714;2023-03-14T04:55:47;7.20;;;5.10;;
71648;SDS011;59492;45.638;11.714;2023-03-14T04:58:17;7.10;;;5.80;;
71648;SDS011;59492;45.638;11.714;2023-03-14T05:01:04;7.00;;;5.20;;
71648;SDS011;59492;45.638;11.714;2023-03-14T05:03:30;7.10;;;5.40;;
71648;SDS011;59492;45.638;11.714;2023-03-14T05:05:58;6.40;;;5.50;;
71648;SDS011;59492;45.638;11.714;2023-03-14T05:08:24;6.40;;;4.70;;
71648;SDS011;59492;45.638;11.714;2023-03-14T05:10:54;6.00;;;5.00;;
71648;SDS011;59492;45.638;11.714;2023-03-14T05:13:20;6.90;;;5.50;;
71648;SDS011;59492;45.638;11.714;2023-03-14T05:15:47;6.30;;;5.10;;
71648;SDS011;59492;45.638;11.714;2023-03-14T05:18:15;7.10;;;5.40;;
71648;SDS011;59492;45.638;11.714;2023-03-14T05:20:41;7.20;;;5.40;;
71648;SDS011;59492;45.638;11.714;2023-03-14T05:23:09;6.40;;;5.00;;
71648;SDS011;59492;45.638;11.714;2023-03-14T05:25:37;6.40;;;5.20;;
71648;SDS011;59492;45.638;11.714;2023-03-14T05:28:03;6.20;;;4.80;;
71648;SDS011;59492;45.638;11.714;2023-03-14T05:30:30;5.30;;;4.80;;
71648;SDS011;59492;45.638;11.714;2023-03-14T05:32:58;6.20;;;5.10;;
71648;SDS011;59492;45.638;11.714;2023-03-14T05:35:24;6.90;;;5.20;;
71648;SDS011;59492;45.638;11.714;2023-03-14T05:37:50;5.50;;;4.40;;
71648;SDS011;59492;45.638;11.714;2023-03-14T05:40:16;7.10;;;5.30;;
71648;SDS011;59492;45.638;11.714;2023-03-14T05:42:42;6.70;;;5.20;;
71648;SDS011;59492;45.638;11.714;2023-03-14T05:45:07;6.50;;;5.00;;
71648;SDS011;59492;45.638;11.714;2023-03-14T05:47:33;6.30;;;5.00;;
71648;SDS011;59492;45.638;11.714;2023-03-14T05:49:59;6.90;;;4.80;;
71648;SDS011;59492;45.638;11.714;2023-03-14T05:52:24;8.40;;;4.80;;
71648;SDS011;59492;45.638;11.714;2023-03-14T05:54:50;5.90;;;4.90;;
71648;SDS011;59492;45.638;11.714;2023-03-14T05:57:15;5.80;;;5.00;;
71648;SDS011;59492;45.638;11.714;2023-03-14T05:59:41;6.10;;;4.70;;
71648;SDS011;59492;45.638;11.714;2023-03-14T06:02:07;5.50;;;4.80;;
71648;SDS011;59492;45.638;11.714;2023-03-14T06:04:33;6.20;;;4.70;;
71648;SDS011;59492;45.638;11.714;2023-03-14T06:06:59;5.90;;;4.20;;
71648;SDS011;59492;45.638;11.714;2023-03-14T06:09:26;6.00;;;4.80;;
71648;SDS011;59492;45.638;11.714;2023-03-14T06:11:52;5.50;;;4.70;;
71648;SDS011;59492;45.638;11.714;2023-03-14T06:14:17;6.60;;;4.90;;
71648;SDS011;59492;45.638;11.714;2023-03-14T06:16:43;5.40;;;4.70;;
71648;SDS011;59492;45.638;11.714;2023-03-14T06:19:09;6.20;;;4.40;;
71648;SDS011;59492;45.638;11.714;2023-03-14T06:21:55;7.20;;;4.90;;
71648;SDS011;59492;45.638;11.714;2023-03-14T06:24:27;5.90;;;4.90;;
71648;SDS011;59492;45.638;11.714;2023-03-14T06:27:13;6.40;;;4.70;;
71648;SDS011;59492;45.638;11.714;2023-03-14T06:29:39;5.90;;;4.70;;
71648;SDS011;59492;45.638;11.714;2023-03-14T06:32:05;5.90;;;4.30;;
71648;SDS011;59492;45.638;11.714;2023-03-14T06:34:31;5.50;;;4.70;;
71648;SDS011;59492;45.638;11.714;2023-03-14T06:36:59;7.10;;;4.30;;
71648;SDS011;59492;45.638;11.714;2023-03-14T06:39:45;5.50;;;4.50;;
71648;SDS011;59492;45.638;11.714;2023-03-14T06:42:15;7.00;;;4.80;;
71648;SDS011;59492;45.638;11.714;2023-03-14T06:44:40;5.90;;;4.70;;
71648;SDS011;59492;45.638;11.714;2023-03-14T06:47:11;5.30;;;4.60;;
71648;SDS011;59492;45.638;11.714;2023-03-14T06:49:38;5.10;;;4.30;;
71648;SDS011;59492;45.638;11.714;2023-03-14T06:52:07;6.30;;;4.50;;
71648;SDS011;59492;45.638;11.714;2023-03-14T06:54:34;6.00;;;4.20;;
71648;SDS011;59492;45.638;11.714;2023-03-14T06:57:00;6.30;;;4.60;;
71648;SDS011;59492;45.638;11.714;2023-03-14T06:59:27;4.90;;;4.10;;
71648;SDS011;59492;45.638;11.714;2023-03-14T07:01:53;6.10;;;4.50;;
71648;SDS011;59492;45.638;11.714;2023-03-14T07:04:21;6.00;;;4.70;;
71648;SDS011;59492;45.638;11.714;2023-03-14T07:06:47;6.60;;;4.10;;
71648;SDS011;59492;45.638;11.714;2023-03-14T07:09:13;5.10;;;4.40;;
71648;SDS011;59492;45.638;11.714;2023-03-14T07:11:39;6.80;;;4.60;;
71648;SDS011;59492;45.638;11.714;2023-03-14T07:14:05;6.40;;;3.90;;
71648;SDS011;59492;45.638;11.714;2023-03-14T07:16:31;9.00;;;5.10;;
71648;SDS011;59492;45.638;11.714;2023-03-14T07:19:00;6.30;;;4.70;;
71648;SDS011;59492;45.638;11.714;2023-03-14T07:21:30;5.70;;;4.10;;
71648;SDS011;59492;45.638;11.714;2023-03-14T07:23:57;6.80;;;4.90;;
71648;SDS011;59492;45.638;11.714;2023-03-14T07:26:23;9.00;;;5.30;;
71648;SDS011;59492;45.638;11.714;2023-03-14T07:28:49;8.20;;;4.60;;
71648;SDS011;59492;45.638;11.714;2023-03-14T07:31:15;10.60;;;4.60;;
71648;SDS011;59492;45.638;11.714;2023-03-14T07:33:41;5.70;;;4.10;;
71648;SDS011;59492;45.638;11.714;2023-03-14T07:36:07;9.40;;;4.50;;
71648;SDS011;59492;45.638;11.714;2023-03-14T07:38:33;8.30;;;5.10;;
71648;SDS011;59492;45.638;11.714;2023-03-14T07:41:00;9.90;;;5.10;;
71648;SDS011;59492;45.638;11.714;2023-03-14T07:43:26;8.00;;;4.60;;
71648;SDS011;59492;45.638;11.714;2023-03-14T07:45:52;6.40;;;4.60;;
71648;SDS011;59492;45.638;11.714;2023-03-14T07:48:18;6.80;;;4.30;;
71648;SDS011;59492;45.638;11.714;2023-03-14T07:50:43;8.10;;;4.80;;
71648;SDS011;59492;45.638;11.714;2023-03-14T07:53:09;9.50;;;4.50;;
71648;SDS011;59492;45.638;11.714;2023-03-14T07:55:34;5.80;;;4.10;;
71648;SDS011;59492;45.638;11.714;2023-03-14T07:58:00;6.30;;;3.90;;
71648;SDS011;59492;45.638;11.714;2023-03-14T08:00:27;12.40;;;4.50;;
71648;SDS011;59492;45.638;11.714;2023-03-14T08:02:52;8.10;;;4.50;;
71648;SDS011;59492;45.638;11.714;2023-03-14T08:05:20;8.10;;;4.20;;
71648;SDS011;59492;45.638;11.714;2023-03-14T08:07:46;8.30;;;4.20;;
71648;SDS011;59492;45.638;11.714;2023-03-14T08:10:11;9.30;;;4.60;;
71648;SDS011;59492;45.638;11.714;2023-03-14T08:12:41;6.30;;;3.80;;
71648;SDS011;59492;45.638;11.714;2023-03-14T08:15:07;7.30;;;4.20;;
71648;SDS011;59492;45.638;11.714;2023-03-14T08:17:33;9.30;;;4.30;;
71648;SDS011;59492;45.638;11.714;2023-03-14T08:19:58;10.00;;;4.30;;
71648;SDS011;59492;45.638;11.714;2023-03-14T08:22:24;6.40;;;3.60;;
71648;SDS011;59492;45.638;11.714;2023-03-14T08:24:49;9.60;;;3.90;;
71648;SDS011;59492;45.638;11.714;2023-03-14T08:27:15;5.60;;;3.70;;
71648;SDS011;59492;45.638;11.714;2023-03-14T08:29:40;6.90;;;3.90;;
71648;SDS011;59492;45.638;11.714;2023-03-14T08:32:07;6.70;;;4.00;;
71648;SDS011;59492;45.638;11.714;2023-03-14T08:34:33;8.00;;;3.70;;
71648;SDS011;59492;45.638;11.714;2023-03-14T08:36:58;11.10;;;3.90;;
71648;SDS011;59492;45.638;11.714;2023-03-14T08:39:24;6.40;;;3.70;;
71648;SDS011;59492;45.638;11.714;2023-03-14T08:41:49;5.50;;;3.50;;
71648;SDS011;59492;45.638;11.714;2023-03-14T08:44:24;5.80;;;3.80;;
71648;SDS011;59492;45.638;11.714;2023-03-14T08:46:49;4.70;;;3.70;;
71648;SDS011;59492;45.638;11.714;2023-03-14T08:49:15;7.00;;;4.00;;
71648;SDS011;59492;45.638;11.714;2023-03-14T08:51:40;6.60;;;3.60;;
71648;SDS011;59492;45.638;11.714;2023-03-14T08:54:08;5.40;;;3.40;;
71648;SDS011;59492;45.638;11.714;2023-03-14T08:56:36;6.20;;;4.00;;
71648;SDS011;59492;45.638;11.714;2023-03-14T08:59:03;7.30;;;3.90;;
71648;SDS011;59492;45.638;11.714;2023-03-14T09:01:29;5.40;;;3.80;;
71648;SDS011;59492;45.638;11.714;2023-03-14T09:03:55;6.80;;;3.90;;
71648;SDS011;59492;45.638;11.714;2023-03-14T09:06:20;5.60;;;3.60;;
71648;SDS011;59492;45.638;11.714;2023-03-14T09:08:46;6.80;;;4.20;;
71648;SDS011;59492;45.638;11.714;2023-03-14T09:11:12;6.30;;;4.00;;
71648;SDS011;59492;45.638;11.714;2023-03-14T09:13:38;8.10;;;4.00;;
71648;SDS011;59492;45.638;11.714;2023-03-14T09:16:04;7.00;;;3.80;;
71648;SDS011;59492;45.638;11.714;2023-03-14T09:18:30;6.50;;;3.50;;
71648;SDS011;59492;45.638;11.714;2023-03-14T09:20:55;5.30;;;3.60;;
71648;SDS011;59492;45.638;11.714;2023-03-14T09:23:21;7.40;;;3.50;;
71648;SDS011;59492;45.638;11.714;2023-03-14T09:25:47;5.10;;;4.00;;
71648;SDS011;59492;45.638;11.714;2023-03-14T09:28:12;7.10;;;3.80;;
71648;SDS011;59492;45.638;11.714;2023-03-14T09:30:38;5.30;;;3.60;;
71648;SDS011;59492;45.638;11.714;2023-03-14T09:33:04;9.30;;;3.40;;
71648;SDS011;59492;45.638;11.714;2023-03-14T09:35:29;4.60;;;3.30;;
71648;SDS011;59492;45.638;11.714;2023-03-14T09:37:55;4.10;;;3.20;;
71648;SDS011;59492;45.638;11.714;2023-03-14T09:40:21;4.00;;;3.40;;
71648;SDS011;59492;45.638;11.714;2023-03-14T09:42:52;5.00;;;3.50;;
71648;SDS011;59492;45.638;11.714;2023-03-14T09:47:51;4.50;;;3.60;;
71648;SDS011;59492;45.638;11.714;2023-03-14T09:50:18;5.90;;;3.80;;
71648;SDS011;59492;45.638;11.714;2023-03-14T09:52:48;7.70;;;3.70;;
71648;SDS011;59492;45.638;11.714;2023-03-14T09:55:20;5.90;;;3.80;;
71648;SDS011;59492;45.638;11.714;2023-03-14T09:57:48;5.30;;;3.20;;
71648;SDS011;59492;45.638;11.714;2023-03-14T10:00:17;5.30;;;3.40;;
71648;SDS011;59492;45.638;11.714;2023-03-14T10:02:50;4.60;;;3.70;;
71648;SDS011;59492;45.638;11.714;2023-03-14T10:05:20;4.90;;;3.60;;
71648;SDS011;59492;45.638;11.714;2023-03-14T10:07:47;5.80;;;3.50;;
71648;SDS011;59492;45.638;11.714;2023-03-14T10:10:16;4.10;;;3.10;;
71648;SDS011;59492;45.638;11.714;2023-03-14T10:12:45;4.20;;;3.20;;
71648;SDS011;59492;45.638;11.714;2023-03-14T10:15:13;4.40;;;3.30;;
71648;SDS011;59492;45.638;11.714;2023-03-14T10:17:47;7.80;;;3.70;;
71648;SDS011;59492;45.638;11.714;2023-03-14T10:22:58;7.30;;;3.90;;
71648;SDS011;59492;45.638;11.714;2023-03-14T23:30:37;4.40;;;3.10;;
71648;SDS011;59492;45.638;11.714;2023-03-14T23:33:04;4.90;;;3.10;;
71648;SDS011;59492;45.638;11.714;2023-03-14T23:35:30;5.90;;;2.90;;
71648;SDS011;59492;45.638;11.714;2023-03-14T23:37:56;4.80;;;2.50;;
71648;SDS011;59492;45.638;11.714;2023-03-14T23:40:22;3.60;;;2.90;;
71648;SDS011;59492;45.638;11.714;2023-03-14T23:42:48;4.50;;;3.30;;
71648;SDS011;59492;45.638;11.714;2023-03-14T23:45:13;4.00;;;2.90;;
71648;SDS011;59492;45.638;11.714;2023-03-14T23:47:39;3.80;;;3.00;;
71648;SDS011;59492;45.638;11.714;2023-03-14T23:50:05;4.70;;;3.10;;
71648;SDS011;59492;45.638;11.714;2023-03-14T23:52:31;4.00;;;3.10;;
71648;SDS011;59492;45.638;11.714;2023-03-14T23:54:57;4.50;;;3.10;;
71648;SDS011;59492;45.638;11.714;2023-03-14T23:57:22;4.30;;;3.20;;
71648;SDS011;59492;45.638;11.714;2023-03-14T23:59:48;5.20;;;3.20;;
